Federal Miramichi — V2BN9 — position and weather

sailwx.info

Track history (hours):
 
Tides and Currents Weather Stations Pressure Air Temp Water Temp Dewpoint Dewpoint Depression Visibility Wind Speed Wind Dir Waves Ship Positions

Federal Miramichi

Last reported at 2017-Sep-18 01:30 UTC. Time now 2017-Sep-21 10:33 UTC.
Position N 37°22' E 025°55'.

Length 185 m; beam 23.5 m; draft 9.6 m.

Type: Ship. MMSI: 205253488.

Date/timePositionNaut miles runAvg speedWind from/ knotsBaromVisibWave heightAir tempDewpointWater temp
2017-Sep-18 01:30N 37°22' E 025°55'611.4
2017-Sep-18 01:00N 37°27' E 025°51'611.3
2017-Sep-18 00:30N 37°32' E 025°49'711.7
2017-Sep-17 23:56N 37°39' E 025°48'511.7
2017-Sep-17 23:30N 37°44' E 025°48'10911.7
2017-Sep-17 14:12N 39°33' E 025°45'312.1
2017-Sep-17 13:59N 39°35' E 025°46'712.2
2017-Sep-17 13:25N 39°42' E 025°46'512.0
2017-Sep-17 13:00N 39°47' E 025°47'711.6
2017-Sep-17 12:26N 39°54' E 025°49'812.8
2017-Sep-17 11:49N 39°59' E 025°57'411.9
2017-Sep-17 11:28N 40°01' E 026°02'612.2
2017-Sep-17 11:00N 40°02' E 026°09'1310.8
2017-Sep-17 09:46N 40°10' E 026°23'10710.6
2017-Sep-16 23:39N 40°53' E 028°31'35 3.0
2017-Sep-16 11:45N 41°19' E 029°03'2 9.6
2017-Sep-16 11:31N 41°20' E 029°00'1 1.1
2017-Sep-16 10:15N 41°21' E 028°60'0 0.9
2017-Sep-16 09:59N 41°21' E 029°00'3 0.2
2017-Sep-15 16:13N 41°24' E 029°03'5 8.9
2017-Sep-15 15:37N 41°24' E 028°56'4 1.1
2017-Sep-15 12:27N 41°24' E 028°51'0 0.5
2017-Sep-15 12:00N 41°24' E 028°51'3 0.5
2017-Sep-15 05:00N 41°24' E 028°55'0 0.7
2017-Sep-15 04:30N 41°24' E 028°56'0 0.6
2017-Sep-15 03:56N 41°24' E 028°56'0 0.6
2017-Sep-15 03:30N 41°24' E 028°57'0 0.5
2017-Sep-15 03:00N 41°24' E 028°57'1 0.6
2017-Sep-15 00:56N 41°25' E 028°58'0 0.6
2017-Sep-15 00:30N 41°25' E 028°59'0 0.6
2017-Sep-15 00:00N 41°25' E 028°59'0 0.6
2017-Sep-14 23:30N 41°25' E 028°59'0 0.6
2017-Sep-14 23:01N 41°26' E 028°60'0 0.4
2017-Sep-14 22:30N 41°26' E 028°60'0 0.8
2017-Sep-14 22:00N 41°26' E 028°59'3 5.7
2017-Sep-14 21:30N 41°28' E 028°57'611.5
2017-Sep-14 20:58N 41°33' E 028°52'511.9
2017-Sep-14 20:31N 41°38' E 028°48'811.9
2017-Sep-14 19:52N 41°44' E 028°42'411.9
2017-Sep-14 19:30N 41°47' E 028°39'1211.9
2017-Sep-14 18:33N 41°57' E 028°30'112.0
2017-Sep-14 18:29N 41°58' E 028°30'611.8
2017-Sep-14 18:00N 42°02' E 028°25'611.5
2017-Sep-14 17:30N 42°07' E 028°21'611.6
2017-Sep-14 17:00N 42°12' E 028°16'611.5
2017-Sep-14 16:31N 42°16' E 028°12'611.5
2017-Sep-14 16:00N 42°21' E 028°08'  
2017-Sep-11 22:49N 42°29' E 027°28'0 0.0
2017-Sep-11 22:30N 42°29' E 027°28'0 0.0
2017-Sep-11 21:14N 42°29' E 027°28'0 0.0
2017-Sep-11 20:58N 42°29' E 027°28'0 0.0
2017-Sep-11 20:30N 42°29' E 027°28'0 0.0
2017-Sep-11 20:00N 42°29' E 027°28'0 0.0
2017-Sep-11 19:30N 42°29' E 027°28'0 0.0
2017-Sep-11 07:27N 42°29' E 027°28'0 0.0
2017-Sep-11 07:01N 42°29' E 027°28'0 0.0
2017-Sep-11 05:10N 42°29' E 027°28'0 0.0
2017-Sep-11 05:00N 42°29' E 027°28'0 0.0
2017-Sep-11 04:30N 42°29' E 027°28'0 0.0
2017-Sep-10 22:56N 42°29' E 027°28'149 3.0
2017-Sep-08 21:37N 44°18' E 029°48'112.9
2017-Sep-08 21:30N 44°20' E 029°49'612.8
2017-Sep-08 21:00N 44°25' E 029°55'612.8
2017-Sep-08 20:31N 44°30' E 029°60'612.9
2017-Sep-08 20:00N 44°35' E 030°04'713.2
2017-Sep-08 19:31N 44°41' E 030°08'713.0
2017-Sep-08 19:00N 44°47' E 030°12'612.9
2017-Sep-08 18:30N 44°53' E 030°16'  
Track history (hours):
 
Tides and Currents Weather Stations Pressure Air Temp Water Temp Dewpoint Dewpoint Depression Visibility Wind Speed Wind Dir Waves Ship Positions

Federal Miramichi

Last reported at 2017-Sep-18 01:30 UTC. Time now 2017-Sep-21 10:33 UTC.
Position N 37°22' E 025°55'.

Length 185 m; beam 23.5 m; draft 9.6 m.

Type: Ship. MMSI: 205253488.

Date/timePositionNaut miles runAvg speedWind from/ knotsBaromVisibWave heightAir tempDewpointWater temp
2017-Sep-18 01:30N 37°22' E 025°55'611.4
2017-Sep-18 01:00N 37°27' E 025°51'611.3
2017-Sep-18 00:30N 37°32' E 025°49'711.7
2017-Sep-17 23:56N 37°39' E 025°48'511.7
2017-Sep-17 23:30N 37°44' E 025°48'10911.7
2017-Sep-17 14:12N 39°33' E 025°45'312.1
2017-Sep-17 13:59N 39°35' E 025°46'712.2
2017-Sep-17 13:25N 39°42' E 025°46'512.0
2017-Sep-17 13:00N 39°47' E 025°47'711.6
2017-Sep-17 12:26N 39°54' E 025°49'812.8
2017-Sep-17 11:49N 39°59' E 025°57'411.9
2017-Sep-17 11:28N 40°01' E 026°02'612.2
2017-Sep-17 11:00N 40°02' E 026°09'1310.8
2017-Sep-17 09:46N 40°10' E 026°23'10710.6
2017-Sep-16 23:39N 40°53' E 028°31'35 3.0
2017-Sep-16 11:45N 41°19' E 029°03'2 9.6
2017-Sep-16 11:31N 41°20' E 029°00'1 1.1
2017-Sep-16 10:15N 41°21' E 028°60'0 0.9
2017-Sep-16 09:59N 41°21' E 029°00'3 0.2
2017-Sep-15 16:13N 41°24' E 029°03'5 8.9
2017-Sep-15 15:37N 41°24' E 028°56'4 1.1
2017-Sep-15 12:27N 41°24' E 028°51'0 0.5
2017-Sep-15 12:00N 41°24' E 028°51'3 0.5
2017-Sep-15 05:00N 41°24' E 028°55'0 0.7
2017-Sep-15 04:30N 41°24' E 028°56'0 0.6
2017-Sep-15 03:56N 41°24' E 028°56'0 0.6
2017-Sep-15 03:30N 41°24' E 028°57'0 0.5
2017-Sep-15 03:00N 41°24' E 028°57'1 0.6
2017-Sep-15 00:56N 41°25' E 028°58'0 0.6
2017-Sep-15 00:30N 41°25' E 028°59'0 0.6
2017-Sep-15 00:00N 41°25' E 028°59'0 0.6
2017-Sep-14 23:30N 41°25' E 028°59'0 0.6
2017-Sep-14 23:01N 41°26' E 028°60'0 0.4
2017-Sep-14 22:30N 41°26' E 028°60'0 0.8
2017-Sep-14 22:00N 41°26' E 028°59'3 5.7
2017-Sep-14 21:30N 41°28' E 028°57'611.5
2017-Sep-14 20:58N 41°33' E 028°52'511.9
2017-Sep-14 20:31N 41°38' E 028°48'811.9
2017-Sep-14 19:52N 41°44' E 028°42'411.9
2017-Sep-14 19:30N 41°47' E 028°39'1211.9
2017-Sep-14 18:33N 41°57' E 028°30'112.0
2017-Sep-14 18:29N 41°58' E 028°30'611.8
2017-Sep-14 18:00N 42°02' E 028°25'611.5
2017-Sep-14 17:30N 42°07' E 028°21'611.6
2017-Sep-14 17:00N 42°12' E 028°16'611.5
2017-Sep-14 16:31N 42°16' E 028°12'611.5
2017-Sep-14 16:00N 42°21' E 028°08'  
2017-Sep-11 22:49N 42°29' E 027°28'0 0.0
2017-Sep-11 22:30N 42°29' E 027°28'0 0.0
2017-Sep-11 21:14N 42°29' E 027°28'0 0.0
2017-Sep-11 20:58N 42°29' E 027°28'0 0.0
2017-Sep-11 20:30N 42°29' E 027°28'0 0.0
2017-Sep-11 20:00N 42°29' E 027°28'0 0.0
2017-Sep-11 19:30N 42°29' E 027°28'0 0.0
2017-Sep-11 07:27N 42°29' E 027°28'0 0.0
2017-Sep-11 07:01N 42°29' E 027°28'0 0.0
2017-Sep-11 05:10N 42°29' E 027°28'0 0.0
2017-Sep-11 05:00N 42°29' E 027°28'0 0.0
2017-Sep-11 04:30N 42°29' E 027°28'0 0.0
2017-Sep-10 22:56N 42°29' E 027°28'149 3.0
2017-Sep-08 21:37N 44°18' E 029°48'112.9
2017-Sep-08 21:30N 44°20' E 029°49'612.8
2017-Sep-08 21:00N 44°25' E 029°55'612.8
2017-Sep-08 20:31N 44°30' E 029°60'612.9
2017-Sep-08 20:00N 44°35' E 030°04'713.2
2017-Sep-08 19:31N 44°41' E 030°08'713.0
2017-Sep-08 19:00N 44°47' E 030°12'612.9
2017-Sep-08 18:30N 44°53' E 030°16'  

Dump ship's entire track history